sensor_id;sensor_type;location;lat;lon;timestamp;temperature;humidity
30290;DHT22;17105;55.652;37.710;2023-05-15T03:56:55;16.50;59.90
30290;DHT22;17105;55.652;37.710;2023-05-15T03:57:28;16.60;60.30
30290;DHT22;17105;55.652;37.710;2023-05-15T03:58:03;16.60;60.10
30290;DHT22;17105;55.652;37.710;2023-05-15T03:58:38;16.60;60.00
30290;DHT22;17105;55.652;37.710;2023-05-15T03:59:12;16.60;59.80
30290;DHT22;17105;55.652;37.710;2023-05-15T03:59:45;16.60;59.60
30290;DHT22;17105;55.652;37.710;2023-05-15T04:00:23;16.60;59.60
30290;DHT22;17105;55.652;37.710;2023-05-15T04:00:57;16.60;59.70
30290;DHT22;17105;55.652;37.710;2023-05-15T04:01:32;16.70;59.60
30290;DHT22;17105;55.652;37.710;2023-05-15T04:02:23;16.70;59.40
30290;DHT22;17105;55.652;37.710;2023-05-15T04:02:56;16.70;59.20
30290;DHT22;17105;55.652;37.710;2023-05-15T04:03:32;16.70;59.00
30290;DHT22;17105;55.652;37.710;2023-05-15T04:04:04;16.70;58.80
30290;DHT22;17105;55.652;37.710;2023-05-15T04:04:38;16.70;58.40
30290;DHT22;17105;55.652;37.710;2023-05-15T04:05:13;16.80;58.20
30290;DHT22;17105;55.652;37.710;2023-05-15T04:05:48;16.80;58.30
30290;DHT22;17105;55.652;37.710;2023-05-15T04:06:22;16.80;58.40
30290;DHT22;17105;55.652;37.710;2023-05-15T04:06:55;16.80;58.50
30290;DHT22;17105;55.652;37.710;2023-05-15T04:07:31;16.80;58.50
30290;DHT22;17105;55.652;37.710;2023-05-15T04:08:05;16.80;58.50
30290;DHT22;17105;55.652;37.710;2023-05-15T04:08:38;16.80;58.50
30290;DHT22;17105;55.652;37.710;2023-05-15T04:09:13;16.80;58.40
30290;DHT22;17105;55.652;37.710;2023-05-15T04:09:46;16.80;58.40
30290;DHT22;17105;55.652;37.710;2023-05-15T04:10:20;16.80;58.30
30290;DHT22;17105;55.652;37.710;2023-05-15T04:10:55;16.80;58.30
30290;DHT22;17105;55.652;37.710;2023-05-15T04:11:29;16.90;58.50
30290;DHT22;17105;55.652;37.710;2023-05-15T04:12:04;16.90;58.60
30290;DHT22;17105;55.652;37.710;2023-05-15T04:12:40;16.90;58.40
30290;DHT22;17105;55.652;37.710;2023-05-15T04:13:14;17.00;58.40
30290;DHT22;17105;55.652;37.710;2023-05-15T04:13:46;17.00;58.40
30290;DHT22;17105;55.652;37.710;2023-05-15T04:14:22;17.00;58.30
30290;DHT22;17105;55.652;37.710;2023-05-15T04:15:04;17.10;58.20
30290;DHT22;17105;55.652;37.710;2023-05-15T04:15:45;17.10;58.10
30290;DHT22;17105;55.652;37.710;2023-05-15T04:16:28;17.20;58.10
30290;DHT22;17105;55.652;37.710;2023-05-15T04:17:03;17.30;57.70
30290;DHT22;17105;55.652;37.710;2023-05-15T04:17:36;17.40;57.60
30290;DHT22;17105;55.652;37.710;2023-05-15T04:18:11;17.40;57.50
30290;DHT22;17105;55.652;37.710;2023-05-15T04:18:44;17.40;57.50
30290;DHT22;17105;55.652;37.710;2023-05-15T04:19:20;17.50;57.60
30290;DHT22;17105;55.652;37.710;2023-05-15T04:19:55;17.50;57.50
30290;DHT22;17105;55.652;37.710;2023-05-15T04:20:27;17.60;57.60
30290;DHT22;17105;55.652;37.710;2023-05-15T04:21:03;17.60;57.50
30290;DHT22;17105;55.652;37.710;2023-05-15T04:21:37;17.60;57.30
30290;DHT22;17105;55.652;37.710;2023-05-15T05:07:10;24.60;38.70
30290;DHT22;17105;55.652;37.710;2023-05-15T05:07:45;22.30;42.00
30290;DHT22;17105;55.652;37.710;2023-05-15T05:08:55;22.10;42.10
30290;DHT22;17105;55.652;37.710;2023-05-15T05:09:28;22.00;42.50
30290;DHT22;17105;55.652;37.710;2023-05-15T05:10:04;21.90;42.40
30290;DHT22;17105;55.652;37.710;2023-05-15T05:10:39;21.80;42.50
30290;DHT22;17105;55.652;37.710;2023-05-15T05:11:13;21.70;42.20
30290;DHT22;17105;55.652;37.710;2023-05-15T05:11:48;21.60;42.30
30290;DHT22;17105;55.652;37.710;2023-05-15T05:12:23;21.40;42.50
30290;DHT22;17105;55.652;37.710;2023-05-15T05:13:00;21.30;42.50
30290;DHT22;17105;55.652;37.710;2023-05-15T05:13:35;21.20;42.40
30290;DHT22;17105;55.652;37.710;2023-05-15T05:14:09;21.10;42.90
30290;DHT22;17105;55.652;37.710;2023-05-15T05:14:42;21.10;51.70
30290;DHT22;17105;55.652;37.710;2023-05-15T05:15:17;20.90;43.20
30290;DHT22;17105;55.652;37.710;2023-05-15T05:15:52;20.90;43.20
30290;DHT22;17105;55.652;37.710;2023-05-15T05:16:26;20.80;43.20
30290;DHT22;17105;55.652;37.710;2023-05-15T05:17:00;20.70;43.00
30290;DHT22;17105;55.652;37.710;2023-05-15T05:17:33;20.60;43.60
30290;DHT22;17105;55.652;37.710;2023-05-15T05:18:42;20.50;43.70
30290;DHT22;17105;55.652;37.710;2023-05-15T05:19:15;20.40;44.20
30290;DHT22;17105;55.652;37.710;2023-05-15T05:19:49;20.30;44.30
30290;DHT22;17105;55.652;37.710;2023-05-15T05:20:24;20.30;44.40
30290;DHT22;17105;55.652;37.710;2023-05-15T05:20:58;20.20;44.50
30290;DHT22;17105;55.652;37.710;2023-05-15T05:21:32;20.20;44.70
30290;DHT22;17105;55.652;37.710;2023-05-15T05:22:07;20.20;44.80
30290;DHT22;17105;55.652;37.710;2023-05-15T05:22:41;20.20;44.60
30290;DHT22;17105;55.652;37.710;2023-05-15T05:23:16;20.20;44.20
30290;DHT22;17105;55.652;37.710;2023-05-15T05:23:51;20.10;44.50
30290;DHT22;17105;55.652;37.710;2023-05-15T05:24:26;20.10;44.60
30290;DHT22;17105;55.652;37.710;2023-05-15T05:25:00;20.00;44.60
30290;DHT22;17105;55.652;37.710;2023-05-15T05:29:34;20.00;44.70
30290;DHT22;17105;55.652;37.710;2023-05-15T05:43:55;20.10;45.70
30290;DHT22;17105;55.652;37.710;2023-05-15T05:44:27;20.40;45.00
30290;DHT22;17105;55.652;37.710;2023-05-15T05:45:01;20.40;45.50
30290;DHT22;17105;55.652;37.710;2023-05-15T05:45:35;20.40;44.80
30290;DHT22;17105;55.652;37.710;2023-05-15T05:46:09;20.40;45.30
30290;DHT22;17105;55.652;37.710;2023-05-15T05:46:44;20.40;44.80
30290;DHT22;17105;55.652;37.710;2023-05-15T05:47:20;20.40;44.70
30290;DHT22;17105;55.652;37.710;2023-05-15T05:47:56;20.40;44.80
30290;DHT22;17105;55.652;37.710;2023-05-15T05:48:31;20.40;44.70
30290;DHT22;17105;55.652;37.710;2023-05-15T05:49:05;20.40;44.60
30290;DHT22;17105;55.652;37.710;2023-05-15T05:49:39;20.40;44.60
30290;DHT22;17105;55.652;37.710;2023-05-15T05:50:12;20.40;44.30
30290;DHT22;17105;55.652;37.710;2023-05-15T05:50:46;20.40;44.40
30290;DHT22;17105;55.652;37.710;2023-05-15T05:51:21;20.40;44.50
30290;DHT22;17105;55.652;37.710;2023-05-15T05:51:55;20.30;44.50
30290;DHT22;17105;55.652;37.710;2023-05-15T05:52:29;20.30;44.50
30290;DHT22;17105;55.652;37.710;2023-05-15T05:53:03;20.30;44.50
30290;DHT22;17105;55.652;37.710;2023-05-15T05:53:37;20.30;44.60
30290;DHT22;17105;55.652;37.710;2023-05-15T05:54:10;20.40;44.50
30290;DHT22;17105;55.652;37.710;2023-05-15T05:54:47;20.40;44.00
30290;DHT22;17105;55.652;37.710;2023-05-15T05:55:21;20.40;44.00
30290;DHT22;17105;55.652;37.710;2023-05-15T05:55:55;20.40;44.00
30290;DHT22;17105;55.652;37.710;2023-05-15T05:56:30;20.50;43.90
30290;DHT22;17105;55.652;37.710;2023-05-15T05:57:04;20.50;44.00
30290;DHT22;17105;55.652;37.710;2023-05-15T05:57:39;20.50;44.00
30290;DHT22;17105;55.652;37.710;2023-05-15T05:58:13;20.40;43.90
30290;DHT22;17105;55.652;37.710;2023-05-15T05:58:58;20.40;44.00
30290;DHT22;17105;55.652;37.710;2023-05-15T05:59:33;20.40;44.20
30290;DHT22;17105;55.652;37.710;2023-05-15T06:00:08;20.40;44.90
30290;DHT22;17105;55.652;37.710;2023-05-15T06:00:43;20.40;44.30
30290;DHT22;17105;55.652;37.710;2023-05-15T06:01:18;20.50;44.50
30290;DHT22;17105;55.652;37.710;2023-05-15T06:01:54;20.50;44.50
30290;DHT22;17105;55.652;37.710;2023-05-15T06:02:30;20.60;44.60
30290;DHT22;17105;55.652;37.710;2023-05-15T06:03:03;20.70;44.70
30290;DHT22;17105;55.652;37.710;2023-05-15T06:03:37;20.70;44.50
30290;DHT22;17105;55.652;37.710;2023-05-15T06:04:13;20.80;44.60
30290;DHT22;17105;55.652;37.710;2023-05-15T06:04:50;20.80;44.60
30290;DHT22;17105;55.652;37.710;2023-05-15T06:05:25;20.80;44.10
30290;DHT22;17105;55.652;37.710;2023-05-15T06:05:58;20.80;44.00
30290;DHT22;17105;55.652;37.710;2023-05-15T06:06:34;20.80;43.90
30290;DHT22;17105;55.652;37.710;2023-05-15T06:07:09;20.70;43.90
30290;DHT22;17105;55.652;37.710;2023-05-15T06:07:43;20.70;44.00
30290;DHT22;17105;55.652;37.710;2023-05-15T06:08:17;20.70;44.00
30290;DHT22;17105;55.652;37.710;2023-05-15T06:08:52;20.60;44.00
30290;DHT22;17105;55.652;37.710;2023-05-15T06:09:29;20.70;44.10
30290;DHT22;17105;55.652;37.710;2023-05-15T06:10:05;20.60;43.70
30290;DHT22;17105;55.652;37.710;2023-05-15T06:10:42;20.70;43.70
30290;DHT22;17105;55.652;37.710;2023-05-15T06:11:16;20.70;43.70
30290;DHT22;17105;55.652;37.710;2023-05-15T06:11:50;20.70;43.90
30290;DHT22;17105;55.652;37.710;2023-05-15T06:12:26;20.80;43.90
30290;DHT22;17105;55.652;37.710;2023-05-15T06:13:00;20.80;43.90
30290;DHT22;17105;55.652;37.710;2023-05-15T06:13:35;20.80;43.90
30290;DHT22;17105;55.652;37.710;2023-05-15T06:14:09;20.80;43.90
30290;DHT22;17105;55.652;37.710;2023-05-15T06:14:42;20.90;44.00
30290;DHT22;17105;55.652;37.710;2023-05-15T06:15:16;21.00;44.00
30290;DHT22;17105;55.652;37.710;2023-05-15T06:15:52;21.10;44.10
30290;DHT22;17105;55.652;37.710;2023-05-15T06:16:25;21.20;43.80
30290;DHT22;17105;55.652;37.710;2023-05-15T06:16:59;21.20;43.60
30290;DHT22;17105;55.652;37.710;2023-05-15T06:17:36;21.30;43.50
30290;DHT22;17105;55.652;37.710;2023-05-15T06:18:09;21.40;43.50
30290;DHT22;17105;55.652;37.710;2023-05-15T06:18:44;21.40;43.30
30290;DHT22;17105;55.652;37.710;2023-05-15T06:19:18;21.40;43.50
30290;DHT22;17105;55.652;37.710;2023-05-15T06:19:54;21.40;43.40
30290;DHT22;17105;55.652;37.710;2023-05-15T06:20:29;21.40;43.20
30290;DHT22;17105;55.652;37.710;2023-05-15T06:21:04;21.30;43.10
30290;DHT22;17105;55.652;37.710;2023-05-15T06:21:38;21.30;42.80
30290;DHT22;17105;55.652;37.710;2023-05-15T06:22:10;21.20;42.90
30290;DHT22;17105;55.652;37.710;2023-05-15T06:22:45;21.10;43.20
30290;DHT22;17105;55.652;37.710;2023-05-15T06:23:21;21.10;43.30
30290;DHT22;17105;55.652;37.710;2023-05-15T06:23:56;20.90;43.30
30290;DHT22;17105;55.652;37.710;2023-05-15T06:24:29;20.90;43.30
30290;DHT22;17105;55.652;37.710;2023-05-15T06:25:05;20.80;43.40
30290;DHT22;17105;55.652;37.710;2023-05-15T06:25:40;20.80;43.60
30290;DHT22;17105;55.652;37.710;2023-05-15T06:26:15;20.80;43.40
30290;DHT22;17105;55.652;37.710;2023-05-15T06:26:50;20.80;43.50
30290;DHT22;17105;55.652;37.710;2023-05-15T06:27:24;20.80;43.40
30290;DHT22;17105;55.652;37.710;2023-05-15T06:28:00;20.90;43.30
30290;DHT22;17105;55.652;37.710;2023-05-15T06:28:33;20.90;43.30
30290;DHT22;17105;55.652;37.710;2023-05-15T06:29:08;20.80;43.30
30290;DHT22;17105;55.652;37.710;2023-05-15T06:29:43;20.90;43.40
30290;DHT22;17105;55.652;37.710;2023-05-15T06:30:17;20.90;43.50
30290;DHT22;17105;55.652;37.710;2023-05-15T06:30:52;20.80;43.60
30290;DHT22;17105;55.652;37.710;2023-05-15T06:31:26;20.90;43.90
30290;DHT22;17105;55.652;37.710;2023-05-15T06:32:01;20.80;43.90
30290;DHT22;17105;55.652;37.710;2023-05-15T06:32:41;20.90;43.70
30290;DHT22;17105;55.652;37.710;2023-05-15T06:33:16;20.90;43.90
30290;DHT22;17105;55.652;37.710;2023-05-15T06:33:50;20.90;44.00
30290;DHT22;17105;55.652;37.710;2023-05-15T06:34:25;20.90;44.00
30290;DHT22;17105;55.652;37.710;2023-05-15T06:34:59;20.90;43.50
30290;DHT22;17105;55.652;37.710;2023-05-15T06:35:34;20.80;43.30
30290;DHT22;17105;55.652;37.710;2023-05-15T06:36:09;20.90;43.50
30290;DHT22;17105;55.652;37.710;2023-05-15T06:36:43;20.80;43.50
30290;DHT22;17105;55.652;37.710;2023-05-15T06:37:16;20.90;43.50
30290;DHT22;17105;55.652;37.710;2023-05-15T06:37:50;20.90;43.40
30290;DHT22;17105;55.652;37.710;2023-05-15T06:38:26;20.90;43.00
30290;DHT22;17105;55.652;37.710;2023-05-15T06:38:59;21.00;43.00
30290;DHT22;17105;55.652;37.710;2023-05-15T06:39:35;21.00;43.10
30290;DHT22;17105;55.652;37.710;2023-05-15T06:40:11;21.00;43.10
30290;DHT22;17105;55.652;37.710;2023-05-15T06:40:44;21.10;43.10
30290;DHT22;17105;55.652;37.710;2023-05-15T06:41:20;21.00;43.10
30290;DHT22;17105;55.652;37.710;2023-05-15T06:41:54;21.00;43.10
30290;DHT22;17105;55.652;37.710;2023-05-15T06:42:34;21.00;42.90
30290;DHT22;17105;55.652;37.710;2023-05-15T06:43:09;21.00;42.90
30290;DHT22;17105;55.652;37.710;2023-05-15T06:43:43;21.00;42.80
30290;DHT22;17105;55.652;37.710;2023-05-15T06:44:17;21.00;42.80
30290;DHT22;17105;55.652;37.710;2023-05-15T06:44:51;20.90;42.90
30290;DHT22;17105;55.652;37.710;2023-05-15T06:45:25;20.90;43.10
30290;DHT22;17105;55.652;37.710;2023-05-15T06:46:01;20.90;43.00
30290;DHT22;17105;55.652;37.710;2023-05-15T06:46:35;20.90;42.70
30290;DHT22;17105;55.652;37.710;2023-05-15T06:47:10;20.80;42.80
30290;DHT22;17105;55.652;37.710;2023-05-15T06:47:46;20.70;43.10
30290;DHT22;17105;55.652;37.710;2023-05-15T06:48:21;20.70;43.10
30290;DHT22;17105;55.652;37.710;2023-05-15T06:48:55;20.70;43.30
30290;DHT22;17105;55.652;37.710;2023-05-15T06:49:29;20.70;43.30
30290;DHT22;17105;55.652;37.710;2023-05-15T06:50:05;20.80;43.40
30290;DHT22;17105;55.652;37.710;2023-05-15T06:50:41;20.80;43.50
30290;DHT22;17105;55.652;37.710;2023-05-15T06:51:15;20.80;43.50
30290;DHT22;17105;55.652;37.710;2023-05-15T06:51:49;20.90;43.60
30290;DHT22;17105;55.652;37.710;2023-05-15T06:52:23;20.90;43.50
30290;DHT22;17105;55.652;37.710;2023-05-15T06:52:57;20.90;43.40
30290;DHT22;17105;55.652;37.710;2023-05-15T06:53:32;20.90;43.10
30290;DHT22;17105;55.652;37.710;2023-05-15T06:54:06;20.90;42.90
30290;DHT22;17105;55.652;37.710;2023-05-15T06:54:40;20.90;42.90
30290;DHT22;17105;55.652;37.710;2023-05-15T06:55:16;20.80;43.00
30290;DHT22;17105;55.652;37.710;2023-05-15T06:55:51;20.70;42.80
30290;DHT22;17105;55.652;37.710;2023-05-15T06:56:25;20.70;42.80
30290;DHT22;17105;55.652;37.710;2023-05-15T06:57:00;20.70;42.50
30290;DHT22;17105;55.652;37.710;2023-05-15T06:57:34;20.70;42.20
30290;DHT22;17105;55.652;37.710;2023-05-15T07:07:23;20.70;42.00
30290;DHT22;17105;55.652;37.710;2023-05-15T07:07:58;20.80;42.00
30290;DHT22;17105;55.652;37.710;2023-05-15T07:08:32;20.90;41.70
30290;DHT22;17105;55.652;37.710;2023-05-15T07:09:07;20.90;41.80
30290;DHT22;17105;55.652;37.710;2023-05-15T07:09:41;21.10;42.00
30290;DHT22;17105;55.652;37.710;2023-05-15T07:10:20;21.10;41.70
30290;DHT22;17105;55.652;37.710;2023-05-15T07:10:54;21.10;41.70
30290;DHT22;17105;55.652;37.710;2023-05-15T07:11:29;21.20;41.80
30290;DHT22;17105;55.652;37.710;2023-05-15T07:12:06;21.20;41.80
30290;DHT22;17105;55.652;37.710;2023-05-15T07:12:42;21.20;41.70
30290;DHT22;17105;55.652;37.710;2023-05-15T07:13:17;21.30;41.70
30290;DHT22;17105;55.652;37.710;2023-05-15T07:13:52;21.40;41.70
30290;DHT22;17105;55.652;37.710;2023-05-15T07:14:26;21.50;41.70
30290;DHT22;17105;55.652;37.710;2023-05-15T07:15:01;21.60;41.90
30290;DHT22;17105;55.652;37.710;2023-05-15T07:15:35;21.60;41.60
30290;DHT22;17105;55.652;37.710;2023-05-15T07:16:10;21.70;41.80
30290;DHT22;17105;55.652;37.710;2023-05-15T07:16:44;21.70;42.00
30290;DHT22;17105;55.652;37.710;2023-05-15T07:17:19;21.80;41.40
30290;DHT22;17105;55.652;37.710;2023-05-15T07:17:56;21.80;40.80
30290;DHT22;17105;55.652;37.710;2023-05-15T07:18:29;21.80;40.90
30290;DHT22;17105;55.652;37.710;2023-05-15T07:19:07;21.70;40.70
30290;DHT22;17105;55.652;37.710;2023-05-15T07:19:42;21.70;40.70
30290;DHT22;17105;55.652;37.710;2023-05-15T07:20:16;21.70;40.60
30290;DHT22;17105;55.652;37.710;2023-05-15T07:20:51;21.70;40.60
30290;DHT22;17105;55.652;37.710;2023-05-15T07:21:24;21.70;40.70
30290;DHT22;17105;55.652;37.710;2023-05-15T07:22:00;21.70;41.00
30290;DHT22;17105;55.652;37.710;2023-05-15T07:22:35;21.60;41.10
30290;DHT22;17105;55.652;37.710;2023-05-15T07:23:20;21.60;41.10
30290;DHT22;17105;55.652;37.710;2023-05-15T07:23:55;21.60;41.10
30290;DHT22;17105;55.652;37.710;2023-05-15T07:24:29;21.60;41.10
30290;DHT22;17105;55.652;37.710;2023-05-15T07:25:04;21.70;41.20
30290;DHT22;17105;55.652;37.710;2023-05-15T07:25:41;21.80;41.30
30290;DHT22;17105;55.652;37.710;2023-05-15T07:26:17;22.00;41.30
30290;DHT22;17105;55.652;37.710;2023-05-15T07:27:06;22.10;41.50
30290;DHT22;17105;55.652;37.710;2023-05-15T07:27:39;22.30;41.40
30290;DHT22;17105;55.652;37.710;2023-05-15T07:28:14;22.50;41.50
30290;DHT22;17105;55.652;37.710;2023-05-15T07:28:48;22.60;41.10
30290;DHT22;17105;55.652;37.710;2023-05-15T07:29:24;22.80;41.00
30290;DHT22;17105;55.652;37.710;2023-05-15T07:30:00;22.90;40.80
30290;DHT22;17105;55.652;37.710;2023-05-15T07:30:34;23.00;40.60
30290;DHT22;17105;55.652;37.710;2023-05-15T07:31:08;23.10;40.60
30290;DHT22;17105;55.652;37.710;2023-05-15T07:31:43;23.20;40.60
30290;DHT22;17105;55.652;37.710;2023-05-15T07:32:16;23.40;40.40
30290;DHT22;17105;55.652;37.710;2023-05-15T07:32:53;23.40;40.40
30290;DHT22;17105;55.652;37.710;2023-05-15T07:33:27;23.60;40.20
30290;DHT22;17105;55.652;37.710;2023-05-15T07:34:02;23.80;40.10
30290;DHT22;17105;55.652;37.710;2023-05-15T07:34:37;24.00;39.80
30290;DHT22;17105;55.652;37.710;2023-05-15T07:35:11;24.10;39.30
30290;DHT22;17105;55.652;37.710;2023-05-15T07:35:46;24.30;39.20
30290;DHT22;17105;55.652;37.710;2023-05-15T07:36:20;24.60;38.90
30290;DHT22;17105;55.652;37.710;2023-05-15T07:36:55;24.80;38.90
30290;DHT22;17105;55.652;37.710;2023-05-15T07:37:29;25.00;38.70
30290;DHT22;17105;55.652;37.710;2023-05-15T07:38:03;25.20;38.30
30290;DHT22;17105;55.652;37.710;2023-05-15T07:38:36;25.50;38.30
30290;DHT22;17105;55.652;37.710;2023-05-15T07:39:11;25.70;38.10
30290;DHT22;17105;55.652;37.710;2023-05-15T07:48:32;26.50;36.70
30290;DHT22;17105;55.652;37.710;2023-05-15T07:49:06;26.70;35.20
30290;DHT22;17105;55.652;37.710;2023-05-15T07:49:40;26.50;35.20
30290;DHT22;17105;55.652;37.710;2023-05-15T07:50:15;26.40;34.90
30290;DHT22;17105;55.652;37.710;2023-05-15T07:50:51;26.30;34.90
30290;DHT22;17105;55.652;37.710;2023-05-15T07:51:25;26.20;34.90
30290;DHT22;17105;55.652;37.710;2023-05-15T07:52:00;26.10;35.00
30290;DHT22;17105;55.652;37.710;2023-05-15T07:52:34;25.90;35.10
30290;DHT22;17105;55.652;37.710;2023-05-15T07:53:09;25.80;34.90
30290;DHT22;17105;55.652;37.710;2023-05-15T07:53:43;25.60;34.60
30290;DHT22;17105;55.652;37.710;2023-05-15T07:54:17;25.40;34.80
30290;DHT22;17105;55.652;37.710;2023-05-15T07:54:51;25.20;35.00
30290;DHT22;17105;55.652;37.710;2023-05-15T07:55:26;25.10;35.30
30290;DHT22;17105;55.652;37.710;2023-05-15T07:56:01;25.10;35.30
30290;DHT22;17105;55.652;37.710;2023-05-15T07:56:37;25.20;35.20
30290;DHT22;17105;55.652;37.710;2023-05-15T07:57:11;25.20;35.20
30290;DHT22;17105;55.652;37.710;2023-05-15T07:57:47;25.30;35.20
30290;DHT22;17105;55.652;37.710;2023-05-15T07:58:26;25.40;35.20
30290;DHT22;17105;55.652;37.710;2023-05-15T07:59:02;25.60;35.20
30290;DHT22;17105;55.652;37.710;2023-05-15T07:59:37;25.70;35.30
30290;DHT22;17105;55.652;37.710;2023-05-15T08:00:14;25.80;35.40
30290;DHT22;17105;55.652;37.710;2023-05-15T08:00:48;25.90;35.60
30290;DHT22;17105;55.652;37.710;2023-05-15T08:01:23;26.10;35.80
30290;DHT22;17105;55.652;37.710;2023-05-15T08:01:57;26.20;35.80
30290;DHT22;17105;55.652;37.710;2023-05-15T08:02:33;26.30;35.60
30290;DHT22;17105;55.652;37.710;2023-05-15T08:03:07;26.40;35.00
30290;DHT22;17105;55.652;37.710;2023-05-15T08:03:44;26.50;34.70
30290;DHT22;17105;55.652;37.710;2023-05-15T08:04:22;26.50;34.80
30290;DHT22;17105;55.652;37.710;2023-05-15T08:04:56;26.40;34.40
30290;DHT22;17105;55.652;37.710;2023-05-15T08:05:29;26.40;34.40
30290;DHT22;17105;55.652;37.710;2023-05-15T08:06:04;26.40;34.30
30290;DHT22;17105;55.652;37.710;2023-05-15T08:06:39;26.30;34.10
30290;DHT22;17105;55.652;37.710;2023-05-15T08:07:16;26.10;33.70
30290;DHT22;17105;55.652;37.710;2023-05-15T08:07:49;25.90;33.70
30290;DHT22;17105;55.652;37.710;2023-05-15T08:08:24;25.70;33.90
30290;DHT22;17105;55.652;37.710;2023-05-15T08:09:00;25.50;34.00
30290;DHT22;17105;55.652;37.710;2023-05-15T08:09:36;25.40;34.10
30290;DHT22;17105;55.652;37.710;2023-05-15T08:10:10;25.20;34.50
30290;DHT22;17105;55.652;37.710;2023-05-15T08:12:29;25.10;34.40
30290;DHT22;17105;55.652;37.710;2023-05-15T08:13:04;24.70;34.90
30290;DHT22;17105;55.652;37.710;2023-05-15T08:13:38;24.60;34.90
30290;DHT22;17105;55.652;37.710;2023-05-15T08:14:12;24.50;35.10
30290;DHT22;17105;55.652;37.710;2023-05-15T08:14:48;24.40;35.20
30290;DHT22;17105;55.652;37.710;2023-05-15T08:15:22;24.30;35.30
30290;DHT22;17105;55.652;37.710;2023-05-15T08:15:57;24.20;36.00
30290;DHT22;17105;55.652;37.710;2023-05-15T08:16:31;24.10;35.40
30290;DHT22;17105;55.652;37.710;2023-05-15T08:17:05;24.00;35.40
30290;DHT22;17105;55.652;37.710;2023-05-15T13:21:07;21.80;34.10
30290;DHT22;17105;55.652;37.710;2023-05-15T13:21:42;21.80;34.60
30290;DHT22;17105;55.652;37.710;2023-05-15T13:22:18;21.80;34.40
30290;DHT22;17105;55.652;37.710;2023-05-15T13:22:51;21.80;34.40
30290;DHT22;17105;55.652;37.710;2023-05-15T13:23:28;21.70;34.30
30290;DHT22;17105;55.652;37.710;2023-05-15T13:24:03;21.70;34.40
30290;DHT22;17105;55.652;37.710;2023-05-15T13:24:37;21.70;34.50
30290;DHT22;17105;55.652;37.710;2023-05-15T13:25:15;21.70;34.40
30290;DHT22;17105;55.652;37.710;2023-05-15T13:25:50;21.60;34.50
30290;DHT22;17105;55.652;37.710;2023-05-15T13:26:24;21.70;34.60
30290;DHT22;17105;55.652;37.710;2023-05-15T13:26:58;21.60;34.40
30290;DHT22;17105;55.652;37.710;2023-05-15T13:27:33;21.60;34.50
30290;DHT22;17105;55.652;37.710;2023-05-15T13:28:07;21.60;34.60
30290;DHT22;17105;55.652;37.710;2023-05-15T13:28:42;21.70;34.60
30290;DHT22;17105;55.652;37.710;2023-05-15T13:29:17;21.60;34.60
30290;DHT22;17105;55.652;37.710;2023-05-15T13:29:52;21.60;34.60
30290;DHT22;17105;55.652;37.710;2023-05-15T13:30:27;21.70;34.70
30290;DHT22;17105;55.652;37.710;2023-05-15T13:31:00;21.60;34.60
30290;DHT22;17105;55.652;37.710;2023-05-15T13:31:36;21.60;34.60
30290;DHT22;17105;55.652;37.710;2023-05-15T13:32:10;21.70;34.80
30290;DHT22;17105;55.652;37.710;2023-05-15T13:32:45;21.70;34.80
30290;DHT22;17105;55.652;37.710;2023-05-15T13:33:19;21.70;34.80
30290;DHT22;17105;55.652;37.710;2023-05-15T13:33:53;21.70;34.60
30290;DHT22;17105;55.652;37.710;2023-05-15T13:34:28;21.70;34.60
30290;DHT22;17105;55.652;37.710;2023-05-15T13:35:04;21.70;34.50
30290;DHT22;17105;55.652;37.710;2023-05-15T13:35:38;21.70;34.60
30290;DHT22;17105;55.652;37.710;2023-05-15T13:36:15;21.70;34.60
30290;DHT22;17105;55.652;37.710;2023-05-15T13:36:50;21.70;34.60
30290;DHT22;17105;55.652;37.710;2023-05-15T13:37:24;21.70;35.00
30290;DHT22;17105;55.652;37.710;2023-05-15T13:37:58;21.70;34.70
30290;DHT22;17105;55.652;37.710;2023-05-15T13:38:34;21.70;34.70
30290;DHT22;17105;55.652;37.710;2023-05-15T13:39:08;21.70;34.70
30290;DHT22;17105;55.652;37.710;2023-05-15T13:39:42;21.70;34.60
30290;DHT22;17105;55.652;37.710;2023-05-15T13:40:17;21.70;34.60
30290;DHT22;17105;55.652;37.710;2023-05-15T13:40:52;21.70;34.60
30290;DHT22;17105;55.652;37.710;2023-05-15T13:41:28;21.70;34.60
30290;DHT22;17105;55.652;37.710;2023-05-15T13:42:04;21.70;34.60
30290;DHT22;17105;55.652;37.710;2023-05-15T13:42:40;21.70;34.60
30290;DHT22;17105;55.652;37.710;2023-05-15T13:43:14;21.70;34.50
30290;DHT22;17105;55.652;37.710;2023-05-15T13:43:49;21.70;34.50
30290;DHT22;17105;55.652;37.710;2023-05-15T13:44:26;21.70;34.60
30290;DHT22;17105;55.652;37.710;2023-05-15T13:45:01;21.70;34.50
30290;DHT22;17105;55.652;37.710;2023-05-15T13:45:36;21.70;34.50
30290;DHT22;17105;55.652;37.710;2023-05-15T13:46:10;21.70;34.50
30290;DHT22;17105;55.652;37.710;2023-05-15T13:46:45;21.70;34.40
30290;DHT22;17105;55.652;37.710;2023-05-15T13:47:20;21.70;34.50
30290;DHT22;17105;55.652;37.710;2023-05-15T13:47:57;21.70;34.50
30290;DHT22;17105;55.652;37.710;2023-05-15T13:48:31;21.70;34.50
30290;DHT22;17105;55.652;37.710;2023-05-15T13:49:06;21.60;34.40
30290;DHT22;17105;55.652;37.710;2023-05-15T13:49:40;21.60;34.30
30290;DHT22;17105;55.652;37.710;2023-05-15T13:50:15;21.60;34.40
30290;DHT22;17105;55.652;37.710;2023-05-15T13:50:49;21.60;34.50
30290;DHT22;17105;55.652;37.710;2023-05-15T13:51:24;21.60;34.40
30290;DHT22;17105;55.652;37.710;2023-05-15T13:51:59;21.60;34.40
30290;DHT22;17105;55.652;37.710;2023-05-15T13:52:33;21.60;34.50
30290;DHT22;17105;55.652;37.710;2023-05-15T13:53:08;21.60;34.50
30290;DHT22;17105;55.652;37.710;2023-05-15T13:53:44;21.60;34.60
30290;DHT22;17105;55.652;37.710;2023-05-15T13:54:22;21.60;34.60
30290;DHT22;17105;55.652;37.710;2023-05-15T13:54:56;21.60;34.60
30290;DHT22;17105;55.652;37.710;2023-05-15T13:55:30;21.60;34.70
30290;DHT22;17105;55.652;37.710;2023-05-15T13:56:06;21.60;34.80
30290;DHT22;17105;55.652;37.710;2023-05-15T13:56:42;21.60;34.80
30290;DHT22;17105;55.652;37.710;2023-05-15T13:57:16;21.60;34.90
30290;DHT22;17105;55.652;37.710;2023-05-15T13:57:50;21.70;35.10
30290;DHT22;17105;55.652;37.710;2023-05-15T13:58:24;21.70;35.10
30290;DHT22;17105;55.652;37.710;2023-05-15T13:58:59;21.70;35.00
30290;DHT22;17105;55.652;37.710;2023-05-15T13:59:34;21.70;34.90
30290;DHT22;17105;55.652;37.710;2023-05-15T14:00:10;21.70;34.80
30290;DHT22;17105;55.652;37.710;2023-05-15T14:00:47;21.70;34.70